createdAt,value
2023-03-15T00:00:42.834Z,6.46
2023-03-15T00:03:09.870Z,6.45
2023-03-15T00:05:36.713Z,6.40
2023-03-15T00:08:04.645Z,6.35
2023-03-15T00:10:31.323Z,6.33
2023-03-15T00:12:57.904Z,6.25
2023-03-15T00:15:24.484Z,6.25
2023-03-15T00:17:52.448Z,6.26
2023-03-15T00:20:19.849Z,6.28
2023-03-15T00:22:46.699Z,6.31
2023-03-15T00:25:13.641Z,6.31
2023-03-15T00:27:40.280Z,6.30
2023-03-15T00:30:07.971Z,6.28
2023-03-15T00:32:34.602Z,6.25
2023-03-15T00:35:05.235Z,6.22
2023-03-15T00:37:32.267Z,6.18
2023-03-15T00:40:00.200Z,6.15
2023-03-15T00:42:28.619Z,6.12
2023-03-15T00:44:58.195Z,6.07
2023-03-15T00:47:25.136Z,6.05
2023-03-15T00:49:53.183Z,6.05
2023-03-15T00:52:22.082Z,6.05
2023-03-15T00:54:52.155Z,6.08
2023-03-15T00:57:19.307Z,6.10
2023-03-15T00:59:46.298Z,6.10
2023-03-15T01:02:13.681Z,6.12
2023-03-15T01:04:40.990Z,6.18
2023-03-15T01:07:07.973Z,6.20
2023-03-15T01:09:35.976Z,6.24
2023-03-15T01:12:02.591Z,6.26
2023-03-15T01:14:31.334Z,6.18
2023-03-15T01:16:58.518Z,6.11
2023-03-15T01:19:25.129Z,5.96
2023-03-15T01:21:53.289Z,5.72
2023-03-15T01:24:20.082Z,5.60
2023-03-15T01:26:50.041Z,5.51
2023-03-15T01:29:18.341Z,5.45
2023-03-15T01:31:45.135Z,5.40
2023-03-15T01:34:11.846Z,5.33
2023-03-15T01:36:38.595Z,5.33
2023-03-15T01:39:05.249Z,5.33
2023-03-15T01:41:42.352Z,5.31
2023-03-15T01:44:13.901Z,5.31
2023-03-15T01:46:41.214Z,5.32
2023-03-15T01:49:19.396Z,5.26
2023-03-15T01:51:52.206Z,5.17
2023-03-15T01:54:26.086Z,5.14
2023-03-15T01:56:58.969Z,5.13
2023-03-15T01:59:31.255Z,5.17
2023-03-15T02:01:59.968Z,5.17
2023-03-15T02:04:32.529Z,5.17
2023-03-15T02:07:02.554Z,5.18
2023-03-15T02:09:41.650Z,5.26
2023-03-15T02:12:09.783Z,5.26
2023-03-15T02:14:38.429Z,5.26
2023-03-15T02:17:06.963Z,5.24
2023-03-15T02:19:44.161Z,5.20
2023-03-15T02:22:24.411Z,5.18
2023-03-15T02:25:00.155Z,5.15
2023-03-15T02:27:30.547Z,5.16
2023-03-15T02:29:57.630Z,5.19
2023-03-15T02:32:24.438Z,5.14
2023-03-15T02:34:51.107Z,5.11
2023-03-15T02:37:17.775Z,5.11
2023-03-15T02:39:46.366Z,5.09
2023-03-15T02:42:13.536Z,5.02
2023-03-15T02:44:43.960Z,4.97
2023-03-15T02:47:16.503Z,4.96
2023-03-15T02:49:47.352Z,5.00
2023-03-15T02:52:14.259Z,5.02
2023-03-15T02:54:43.541Z,5.02
2023-03-15T02:57:11.323Z,5.00
2023-03-15T02:59:38.976Z,4.95
2023-03-15T03:02:07.826Z,4.88
2023-03-15T03:04:34.536Z,4.81
2023-03-15T03:07:01.245Z,4.74
2023-03-15T03:09:34.764Z,4.72
2023-03-15T03:12:01.600Z,4.71
2023-03-15T03:14:30.102Z,4.69
2023-03-15T03:16:57.501Z,4.66
2023-03-15T03:19:25.874Z,4.67
2023-03-15T03:21:55.741Z,4.63
2023-03-15T03:24:22.503Z,4.59
2023-03-15T03:26:49.168Z,4.57
2023-03-15T03:29:16.760Z,4.52
2023-03-15T03:31:45.789Z,4.45
2023-03-15T03:34:15.477Z,4.42
2023-03-15T03:36:43.948Z,4.42
2023-03-15T03:39:12.646Z,4.39
2023-03-15T03:41:39.433Z,4.36
2023-03-15T03:44:06.971Z,4.36
2023-03-15T03:46:35.084Z,4.35
2023-03-15T03:49:01.868Z,4.33
2023-03-15T03:51:28.600Z,4.34
2023-03-15T03:53:56.639Z,4.34
2023-03-15T03:56:23.334Z,4.35
2023-03-15T03:58:51.000Z,4.36
2023-03-15T04:01:22.418Z,4.35
2023-03-15T04:03:52.156Z,4.28
2023-03-15T04:06:22.546Z,4.26
2023-03-15T04:08:49.394Z,4.24
2023-03-15T04:11:29.788Z,4.26
2023-03-15T04:14:00.250Z,4.27
2023-03-15T04:16:27.405Z,4.30
2023-03-15T04:19:03.856Z,4.32
2023-03-15T04:21:32.533Z,4.30
2023-03-15T04:24:13.059Z,4.30
2023-03-15T04:26:59.394Z,4.26
2023-03-15T04:29:46.266Z,4.24
2023-03-15T04:32:32.949Z,4.18
2023-03-15T04:35:33.591Z,4.16
2023-03-15T04:38:27.264Z,4.13
2023-03-15T04:41:26.994Z,4.11
2023-03-15T04:44:03.875Z,4.06
2023-03-15T04:46:44.566Z,3.99
2023-03-15T04:49:18.851Z,3.92
2023-03-15T04:51:57.371Z,3.87
2023-03-15T04:54:43.715Z,3.83
2023-03-15T04:57:36.607Z,3.85
2023-03-15T05:00:24.932Z,3.85
2023-03-15T05:03:00.816Z,3.88
2023-03-15T05:05:42.395Z,3.92
2023-03-15T05:08:27.838Z,3.98
2023-03-15T05:11:06.235Z,4.02
2023-03-15T05:13:52.654Z,4.05
2023-03-15T05:16:41.053Z,4.08
2023-03-15T05:19:36.738Z,4.11
2023-03-15T05:22:30.151Z,4.11
2023-03-15T05:25:07.145Z,4.08
2023-03-15T05:27:56.993Z,4.06
2023-03-15T05:30:31.153Z,4.04
2023-03-15T05:33:05.009Z,4.02
2023-03-15T05:35:40.643Z,3.95
2023-03-15T05:38:27.318Z,3.96
2023-03-15T05:41:04.000Z,4.01
2023-03-15T05:43:56.961Z,4.04
2023-03-15T05:46:39.870Z,4.10
2023-03-15T05:49:27.000Z,4.11
2023-03-15T05:52:05.881Z,4.11
2023-03-15T05:54:52.799Z,4.11
2023-03-15T05:57:22.359Z,4.15
2023-03-15T06:00:09.604Z,4.13
2023-03-15T06:02:41.933Z,4.14
2023-03-15T06:05:25.845Z,4.10
2023-03-15T06:07:52.819Z,4.08
2023-03-15T06:10:20.808Z,4.08
2023-03-15T06:12:47.553Z,4.07
2023-03-15T06:15:16.852Z,4.06
2023-03-15T06:17:44.557Z,4.09
2023-03-15T06:20:13.396Z,4.09
2023-03-15T06:22:42.884Z,4.12
2023-03-15T06:25:23.442Z,4.11
2023-03-15T06:27:50.307Z,4.09
2023-03-15T06:30:17.784Z,4.07
2023-03-15T06:32:45.006Z,4.10
2023-03-15T06:35:11.871Z,4.14
2023-03-15T06:37:38.520Z,4.19
2023-03-15T06:40:08.511Z,4.26
2023-03-15T06:42:36.358Z,4.29
2023-03-15T06:45:04.451Z,4.31
2023-03-15T06:47:32.081Z,4.27
2023-03-15T06:49:58.770Z,4.22
2023-03-15T06:52:25.577Z,4.13
2023-03-15T06:54:52.280Z,4.17
2023-03-15T06:57:20.836Z,4.23
2023-03-15T06:59:47.445Z,4.30
2023-03-15T07:02:16.259Z,4.40
2023-03-15T07:04:44.627Z,4.56
2023-03-15T07:07:11.877Z,4.64
2023-03-15T07:09:38.977Z,4.73
2023-03-15T07:12:06.046Z,4.79
2023-03-15T07:14:35.188Z,4.85
2023-03-15T07:17:01.876Z,4.96
2023-03-15T07:19:28.625Z,5.07
2023-03-15T07:21:55.234Z,5.27
2023-03-15T07:24:21.917Z,5.43
2023-03-15T07:26:48.621Z,5.58
2023-03-15T07:29:15.413Z,5.75
2023-03-15T07:31:43.324Z,5.89
2023-03-15T07:34:09.975Z,5.91
2023-03-15T07:36:36.685Z,5.99
2023-03-15T07:39:04.852Z,6.12
2023-03-15T07:41:31.574Z,6.08
2023-03-15T07:44:06.805Z,6.10
2023-03-15T07:46:33.619Z,6.22
2023-03-15T07:49:01.732Z,6.43
2023-03-15T07:51:28.661Z,6.45
2023-03-15T07:53:55.429Z,6.44
2023-03-15T07:56:22.109Z,6.36
2023-03-15T07:58:48.723Z,6.50
2023-03-15T08:01:15.388Z,6.45
2023-03-15T08:03:42.311Z,6.37
2023-03-15T08:06:10.581Z,6.40
2023-03-15T08:08:37.309Z,6.30
2023-03-15T08:11:05.443Z,6.17
2023-03-15T08:13:32.193Z,6.06
2023-03-15T08:15:58.830Z,6.05
2023-03-15T08:18:25.536Z,6.24
2023-03-15T08:20:53.105Z,6.42
2023-03-15T08:23:21.932Z,6.74
2023-03-15T08:25:48.904Z,7.00
2023-03-15T08:28:16.028Z,7.15
2023-03-15T08:30:42.697Z,7.14
2023-03-15T08:33:09.804Z,7.14
2023-03-15T08:35:36.517Z,7.03
2023-03-15T08:38:04.051Z,6.86
2023-03-15T08:40:32.098Z,6.72
2023-03-15T08:42:59.721Z,6.67
2023-03-15T08:45:27.184Z,6.68
2023-03-15T08:47:57.458Z,6.73
2023-03-15T08:50:25.884Z,6.92
2023-03-15T08:52:52.616Z,7.15
2023-03-15T08:55:20.060Z,7.28
2023-03-15T08:57:48.257Z,7.42
2023-03-15T09:00:21.022Z,7.61
2023-03-15T09:02:51.878Z,7.73
2023-03-15T09:05:20.092Z,7.96
2023-03-15T09:07:47.621Z,8.15
2023-03-15T09:10:16.072Z,8.35
2023-03-15T09:12:46.489Z,8.56
2023-03-15T09:15:15.165Z,8.75
2023-03-15T09:17:42.496Z,8.93
2023-03-15T09:20:16.165Z,9.07
2023-03-15T09:22:43.491Z,9.29
2023-03-15T09:25:10.904Z,9.49
2023-03-15T09:27:37.793Z,9.61
2023-03-15T09:30:05.600Z,9.76
2023-03-15T09:32:36.475Z,9.81
2023-03-15T09:35:03.993Z,9.80
2023-03-15T09:37:31.012Z,9.92
2023-03-15T09:39:57.748Z,10.05
2023-03-15T09:42:34.746Z,10.18
2023-03-15T09:45:12.814Z,10.32
2023-03-15T09:47:49.609Z,10.51
2023-03-15T09:50:21.420Z,10.60
2023-03-15T09:52:51.694Z,10.45
2023-03-15T09:55:22.962Z,10.49
2023-03-15T09:57:53.736Z,10.51
2023-03-15T10:00:22.255Z,10.41
2023-03-15T10:02:56.942Z,10.44
2023-03-15T10:05:31.207Z,10.53
2023-03-15T10:07:58.183Z,10.46
2023-03-15T10:10:32.229Z,10.53
2023-03-15T10:13:10.046Z,10.57
2023-03-15T10:15:54.285Z,10.64
2023-03-15T10:18:38.537Z,10.66
2023-03-15T10:21:12.580Z,10.45
2023-03-15T10:23:47.859Z,10.38
2023-03-15T10:26:17.192Z,10.43
2023-03-15T10:28:44.838Z,10.41
2023-03-15T10:31:25.658Z,10.30
2023-03-15T10:33:57.859Z,10.37
2023-03-15T10:36:25.685Z,10.13
2023-03-15T10:38:52.858Z,9.92
2023-03-15T10:41:30.537Z,9.90
2023-03-15T10:44:01.107Z,9.86
2023-03-15T10:46:28.069Z,9.81
2023-03-15T10:48:59.598Z,9.63
2023-03-15T10:51:28.738Z,9.65
2023-03-15T10:53:58.458Z,9.82
2023-03-15T10:56:27.782Z,10.08
2023-03-15T10:59:11.459Z,10.25
2023-03-15T11:01:38.931Z,10.35
2023-03-15T11:04:21.597Z,10.46
2023-03-15T11:06:50.779Z,10.59
2023-03-15T11:09:22.281Z,10.87
2023-03-15T11:11:59.349Z,11.13
2023-03-15T11:14:27.270Z,11.27
2023-03-15T11:16:57.024Z,11.36
2023-03-15T11:19:27.950Z,11.48
2023-03-15T11:21:56.505Z,11.61
2023-03-15T11:24:26.449Z,11.61
2023-03-15T11:26:55.395Z,11.73
2023-03-15T11:29:25.509Z,11.92
2023-03-15T11:31:53.700Z,12.05
2023-03-15T11:34:42.524Z,12.20
2023-03-15T11:37:14.731Z,11.97
2023-03-15T11:39:46.079Z,11.73
2023-03-15T11:42:20.972Z,11.63
2023-03-15T11:44:50.426Z,11.76
2023-03-15T11:47:28.715Z,11.89
2023-03-15T11:49:57.799Z,12.02
2023-03-15T11:52:26.781Z,12.08
2023-03-15T11:54:57.602Z,11.70
2023-03-15T11:57:47.685Z,11.35
2023-03-15T12:00:53.581Z,11.16
2023-03-15T12:03:34.462Z,10.78
2023-03-15T12:06:34.936Z,10.46
2023-03-15T12:09:02.197Z,10.30
2023-03-15T12:11:41.404Z,10.19
2023-03-15T12:14:25.802Z,10.01
2023-03-15T12:17:17.386Z,9.99
2023-03-15T12:19:44.197Z,10.21
2023-03-15T12:22:17.214Z,10.21
2023-03-15T12:24:47.909Z,10.48
2023-03-15T12:27:16.880Z,10.48
2023-03-15T12:29:45.895Z,10.53
2023-03-15T12:32:15.034Z,10.71
2023-03-15T12:34:48.145Z,10.79
2023-03-15T12:37:20.287Z,10.75
2023-03-15T12:39:50.741Z,10.80
2023-03-15T12:43:06.190Z,10.88
2023-03-15T12:45:41.323Z,10.74
2023-03-15T12:48:29.076Z,10.52
2023-03-15T12:51:04.995Z,10.17
2023-03-15T12:53:39.080Z,9.92
2023-03-15T12:56:28.204Z,9.75
2023-03-15T12:59:02.126Z,9.67
2023-03-15T13:01:28.817Z,9.67
2023-03-15T13:03:58.201Z,9.89
2023-03-15T13:06:33.110Z,10.19
2023-03-15T13:09:10.298Z,10.49
2023-03-15T13:11:44.227Z,10.75
2023-03-15T13:14:33.504Z,10.80
2023-03-15T13:17:07.535Z,10.82
2023-03-15T13:19:41.792Z,10.76
2023-03-15T13:22:17.927Z,10.53
2023-03-15T13:24:57.792Z,10.46
2023-03-15T13:27:49.897Z,10.58
2023-03-15T13:30:32.927Z,10.75
2023-03-15T13:33:06.822Z,10.85
2023-03-15T13:35:33.963Z,10.90
2023-03-15T13:38:07.771Z,10.92
2023-03-15T13:40:45.255Z,10.96
2023-03-15T13:43:13.145Z,10.98
2023-03-15T13:45:42.326Z,10.97
2023-03-15T13:48:09.870Z,10.91
2023-03-15T13:50:39.386Z,10.84
2023-03-15T13:53:06.710Z,10.71
2023-03-15T13:55:36.127Z,10.56
2023-03-15T13:58:05.984Z,10.42
2023-03-15T14:00:34.507Z,10.31
2023-03-15T14:03:04.838Z,10.19
2023-03-15T14:05:33.761Z,10.14
2023-03-15T14:08:03.104Z,10.13
2023-03-15T14:10:32.190Z,10.10
2023-03-15T14:13:21.143Z,10.10
2023-03-15T14:15:47.689Z,9.90
2023-03-15T14:18:17.275Z,9.72
2023-03-15T14:20:47.019Z,9.60
2023-03-15T14:23:17.399Z,9.54
2023-03-15T14:25:49.902Z,9.47
2023-03-15T14:28:18.903Z,9.44
2023-03-15T14:30:52.882Z,9.43
2023-03-15T14:33:31.702Z,9.34
2023-03-15T14:36:01.156Z,9.28
2023-03-15T14:38:33.394Z,9.24
2023-03-15T14:41:18.697Z,9.20
2023-03-15T14:43:47.324Z,9.12
2023-03-15T14:46:14.359Z,9.01
2023-03-15T14:48:41.466Z,8.99
2023-03-15T14:51:14.817Z,8.98
2023-03-15T14:53:42.237Z,8.96
2023-03-15T14:56:11.560Z,8.93
2023-03-15T14:58:38.595Z,8.90
2023-03-15T15:01:08.253Z,8.91
2023-03-15T15:03:38.622Z,8.92
2023-03-15T15:06:08.080Z,8.89
2023-03-15T15:08:38.520Z,8.87
2023-03-15T15:11:06.797Z,8.93
2023-03-15T15:13:33.418Z,8.98
2023-03-15T15:16:00.242Z,9.02
2023-03-15T15:18:30.253Z,9.08
2023-03-15T15:20:59.802Z,9.01
2023-03-15T15:23:29.324Z,8.93
2023-03-15T15:25:57.693Z,8.83
2023-03-15T15:28:34.551Z,8.81
2023-03-15T15:31:02.405Z,8.75
2023-03-15T15:33:31.579Z,8.72
2023-03-15T15:35:58.465Z,8.70
2023-03-15T15:38:32.132Z,8.77
2023-03-15T15:40:58.852Z,8.81
2023-03-15T15:43:25.595Z,8.87
2023-03-15T15:45:52.282Z,8.87
2023-03-15T15:48:19.041Z,8.85
2023-03-15T15:50:47.114Z,8.83
2023-03-15T15:53:17.177Z,8.81
2023-03-15T15:55:44.336Z,8.81
2023-03-15T15:58:12.607Z,8.80
2023-03-15T16:00:39.362Z,8.72
2023-03-15T16:03:14.937Z,8.63
2023-03-15T16:05:42.332Z,8.55
2023-03-15T16:08:19.978Z,8.46
2023-03-15T16:10:46.636Z,8.44
2023-03-15T16:13:13.470Z,8.41
2023-03-15T16:15:40.218Z,8.34
2023-03-15T16:18:09.655Z,8.18
2023-03-15T16:20:37.276Z,8.09
2023-03-15T16:23:04.173Z,8.07
2023-03-15T16:25:34.978Z,8.06
2023-03-15T16:28:04.010Z,8.06
2023-03-15T16:30:32.269Z,8.07
2023-03-15T16:32:59.024Z,8.08
2023-03-15T16:35:31.549Z,8.10
2023-03-15T16:37:58.800Z,8.11
2023-03-15T16:40:27.245Z,8.05
2023-03-15T16:42:55.392Z,7.97
2023-03-15T16:45:22.582Z,7.90
2023-03-15T16:47:49.614Z,7.84
2023-03-15T16:50:17.212Z,7.83
2023-03-15T16:52:46.716Z,7.83
2023-03-15T16:55:15.051Z,7.82
2023-03-15T16:57:41.833Z,7.86
2023-03-15T17:00:16.715Z,7.85
2023-03-15T17:02:46.198Z,7.82
2023-03-15T17:05:18.924Z,7.81
2023-03-15T17:07:47.346Z,7.81
2023-03-15T17:10:21.293Z,7.78
2023-03-15T17:12:48.706Z,7.75
2023-03-15T17:15:20.244Z,7.76
2023-03-15T17:17:47.371Z,7.74
2023-03-15T17:20:14.658Z,7.76
2023-03-15T17:22:42.138Z,7.77
2023-03-15T17:25:09.115Z,7.76
2023-03-15T17:27:39.119Z,7.72
2023-03-15T17:30:18.197Z,7.67
2023-03-15T17:32:45.558Z,7.57
2023-03-15T17:35:13.923Z,7.51
2023-03-15T17:37:44.786Z,7.48
2023-03-15T17:40:19.848Z,7.46
2023-03-15T17:42:47.419Z,7.45
2023-03-15T17:45:18.445Z,7.44
2023-03-15T17:47:45.155Z,7.39
2023-03-15T17:50:12.043Z,7.35
2023-03-15T17:52:39.434Z,7.30
2023-03-15T17:55:08.467Z,7.25
2023-03-15T17:57:38.363Z,7.22
2023-03-15T18:00:08.662Z,7.17
2023-03-15T18:02:46.585Z,7.11
2023-03-15T18:05:19.500Z,7.04
2023-03-15T18:07:58.285Z,6.98
2023-03-15T18:10:31.381Z,6.91
2023-03-15T18:12:58.064Z,6.85
2023-03-15T18:15:25.872Z,6.81
2023-03-15T18:17:53.947Z,6.74
2023-03-15T18:20:24.207Z,6.67
2023-03-15T18:22:51.688Z,6.60
2023-03-15T18:25:21.016Z,6.51
2023-03-15T18:27:48.593Z,6.44
2023-03-15T18:30:17.730Z,6.46
2023-03-15T18:32:44.585Z,6.49
2023-03-15T18:35:16.956Z,6.54
2023-03-15T18:37:43.732Z,6.58
2023-03-15T18:40:13.630Z,6.64
2023-03-15T18:42:40.578Z,6.70
2023-03-15T18:45:10.824Z,6.70
2023-03-15T18:47:39.039Z,6.66
2023-03-15T18:50:10.666Z,6.59
2023-03-15T18:52:39.073Z,6.57
2023-03-15T18:55:09.496Z,6.55
2023-03-15T18:57:37.056Z,6.52
2023-03-15T19:00:12.993Z,6.50
2023-03-15T19:02:40.859Z,6.51
2023-03-15T19:05:08.844Z,6.52
2023-03-15T19:07:35.718Z,6.50
2023-03-15T19:10:04.991Z,6.57
2023-03-15T19:12:31.818Z,6.61
2023-03-15T19:14:58.600Z,6.62
2023-03-15T19:17:25.671Z,6.60
2023-03-15T19:19:52.255Z,6.59
2023-03-15T19:22:18.983Z,6.62
2023-03-15T19:24:45.632Z,6.65
2023-03-15T19:27:13.640Z,6.67
2023-03-15T19:29:40.264Z,6.66
2023-03-15T19:32:06.998Z,6.65
2023-03-15T19:34:33.653Z,6.60
2023-03-15T19:37:01.154Z,6.62
2023-03-15T19:39:27.817Z,6.62
2023-03-15T19:41:54.477Z,6.62
2023-03-15T19:44:22.579Z,6.60
2023-03-15T19:46:49.657Z,6.57
2023-03-15T19:49:16.382Z,6.57
2023-03-15T19:51:42.969Z,6.57
2023-03-15T19:54:09.712Z,6.52
2023-03-15T19:56:37.069Z,6.49
2023-03-15T19:59:06.763Z,6.49
2023-03-15T20:01:34.867Z,6.49
2023-03-15T20:04:04.151Z,6.44
2023-03-15T20:06:31.529Z,6.34
2023-03-15T20:08:59.516Z,6.31
2023-03-15T20:11:26.437Z,6.28
2023-03-15T20:13:53.866Z,6.30
2023-03-15T20:16:21.874Z,6.36
2023-03-15T20:18:55.261Z,6.35
2023-03-15T20:21:21.979Z,6.36
2023-03-15T20:23:49.183Z,6.42
2023-03-15T20:26:17.632Z,6.45
2023-03-15T20:28:48.060Z,6.48
2023-03-15T20:31:17.182Z,6.47
2023-03-15T20:33:47.625Z,6.45
2023-03-15T20:36:16.269Z,6.43
2023-03-15T20:38:43.128Z,6.44
2023-03-15T20:41:10.235Z,6.45
2023-03-15T20:43:36.904Z,6.47
2023-03-15T20:46:04.435Z,6.48
2023-03-15T20:48:34.978Z,6.48
2023-03-15T20:51:04.096Z,6.47
2023-03-15T20:53:34.094Z,6.43
2023-03-15T20:56:01.681Z,6.43
2023-03-15T20:58:29.021Z,6.44
2023-03-15T21:01:02.603Z,6.46
2023-03-15T21:03:31.390Z,6.45
2023-03-15T21:05:58.797Z,6.44
2023-03-15T21:08:25.508Z,6.39
2023-03-15T21:10:54.302Z,6.37
2023-03-15T21:13:21.266Z,6.34
2023-03-15T21:15:47.979Z,6.35
2023-03-15T21:18:16.513Z,6.36
2023-03-15T21:20:44.208Z,6.38
2023-03-15T21:23:11.692Z,6.36
2023-03-15T21:25:38.500Z,6.32
2023-03-15T21:28:07.048Z,6.29
2023-03-15T21:30:33.902Z,6.25
2023-03-15T21:33:01.242Z,6.27
2023-03-15T21:35:28.123Z,6.29
2023-03-15T21:37:54.806Z,6.32
2023-03-15T21:40:21.749Z,6.31
2023-03-15T21:42:48.634Z,6.25
2023-03-15T21:45:17.016Z,6.23
2023-03-15T21:47:45.914Z,6.20
2023-03-15T21:50:13.152Z,6.15
2023-03-15T21:52:39.820Z,6.10
2023-03-15T21:55:08.111Z,6.04
2023-03-15T21:57:34.812Z,5.96
2023-03-15T22:00:03.612Z,5.89
2023-03-15T22:02:39.839Z,5.83
2023-03-15T22:05:06.790Z,5.78
2023-03-15T22:07:33.936Z,5.78
2023-03-15T22:10:01.682Z,5.81
2023-03-15T22:12:28.328Z,5.86
2023-03-15T22:15:05.369Z,5.88
2023-03-15T22:17:32.443Z,5.89
2023-03-15T22:20:00.986Z,5.91
2023-03-15T22:22:27.902Z,5.86
2023-03-15T22:24:54.672Z,5.84
2023-03-15T22:27:21.563Z,5.83
2023-03-15T22:29:48.253Z,5.84
2023-03-15T22:32:14.934Z,5.83
2023-03-15T22:34:41.738Z,5.81
2023-03-15T22:37:10.038Z,5.77
2023-03-15T22:39:37.225Z,5.75
2023-03-15T22:42:03.908Z,5.71
2023-03-15T22:44:30.682Z,5.75
2023-03-15T22:46:57.465Z,5.79
2023-03-15T22:49:24.192Z,5.82
2023-03-15T22:51:50.873Z,5.84
2023-03-15T22:54:18.916Z,5.82
2023-03-15T22:56:45.737Z,5.81
2023-03-15T22:59:12.372Z,5.80
2023-03-15T23:01:39.086Z,5.83
2023-03-15T23:04:05.864Z,5.84
2023-03-15T23:06:32.595Z,5.84
2023-03-15T23:08:59.270Z,5.88
2023-03-15T23:11:27.375Z,5.90
2023-03-15T23:13:54.081Z,5.92
2023-03-15T23:16:20.785Z,5.93
2023-03-15T23:18:48.706Z,5.94
2023-03-15T23:21:15.443Z,5.89
2023-03-15T23:23:45.100Z,5.82
2023-03-15T23:26:12.937Z,5.71
2023-03-15T23:28:41.024Z,5.65
2023-03-15T23:31:08.062Z,5.66
2023-03-15T23:33:35.262Z,5.69
2023-03-15T23:36:02.458Z,5.70
2023-03-15T23:38:29.284Z,5.72
2023-03-15T23:40:56.658Z,5.72
2023-03-15T23:43:23.556Z,5.72
2023-03-15T23:45:56.813Z,5.72
2023-03-15T23:48:24.011Z,5.69
2023-03-15T23:50:54.398Z,5.72
2023-03-15T23:53:21.217Z,5.73
2023-03-15T23:55:48.889Z,5.70
2023-03-15T23:58:15.584Z,5.65
